sensor_id;sensor_type;location;lat;lon;timestamp;temperature;humidity
16076;DHT22;8142;48.242;11.644;2023-03-15T00:00:29;6.10;99.90
16076;DHT22;8142;48.242;11.644;2023-03-15T00:02:55;6.10;99.90
16076;DHT22;8142;48.242;11.644;2023-03-15T00:05:21;6.20;99.90
16076;DHT22;8142;48.242;11.644;2023-03-15T00:07:47;6.10;99.90
16076;DHT22;8142;48.242;11.644;2023-03-15T00:10:13;6.20;99.90
16076;DHT22;8142;48.242;11.644;2023-03-15T00:12:40;6.20;99.90
16076;DHT22;8142;48.242;11.644;2023-03-15T00:15:12;6.20;99.90
16076;DHT22;8142;48.242;11.644;2023-03-15T00:17:40;6.20;99.90
16076;DHT22;8142;48.242;11.644;2023-03-15T00:20:07;6.10;99.90
16076;DHT22;8142;48.242;11.644;2023-03-15T00:22:33;6.10;99.90
16076;DHT22;8142;48.242;11.644;2023-03-15T00:24:59;6.10;99.90
16076;DHT22;8142;48.242;11.644;2023-03-15T00:27:24;6.10;99.90
16076;DHT22;8142;48.242;11.644;2023-03-15T00:29:50;6.00;99.90
16076;DHT22;8142;48.242;11.644;2023-03-15T00:32:16;6.00;99.90
16076;DHT22;8142;48.242;11.644;2023-03-15T00:34:42;5.90;99.90
16076;DHT22;8142;48.242;11.644;2023-03-15T00:37:15;5.80;99.90
16076;DHT22;8142;48.242;11.644;2023-03-15T00:39:42;5.80;99.90
16076;DHT22;8142;48.242;11.644;2023-03-15T00:42:11;5.70;99.90
16076;DHT22;8142;48.242;11.644;2023-03-15T00:44:44;5.70;99.90
16076;DHT22;8142;48.242;11.644;2023-03-15T00:47:11;5.60;99.90
16076;DHT22;8142;48.242;11.644;2023-03-15T00:49:38;5.60;99.90
16076;DHT22;8142;48.242;11.644;2023-03-15T00:52:04;5.50;99.90
16076;DHT22;8142;48.242;11.644;2023-03-15T00:54:30;5.40;99.90
16076;DHT22;8142;48.242;11.644;2023-03-15T00:57:01;5.40;99.90
16076;DHT22;8142;48.242;11.644;2023-03-15T00:59:29;5.30;99.90
16076;DHT22;8142;48.242;11.644;2023-03-15T01:02:04;5.20;99.90
16076;DHT22;8142;48.242;11.644;2023-03-15T01:04:30;5.10;99.90
16076;DHT22;8142;48.242;11.644;2023-03-15T01:06:56;5.00;99.90
16076;DHT22;8142;48.242;11.644;2023-03-15T01:09:23;4.90;99.90
16076;DHT22;8142;48.242;11.644;2023-03-15T01:11:49;4.90;99.90
16076;DHT22;8142;48.242;11.644;2023-03-15T01:14:16;4.80;99.90
16076;DHT22;8142;48.242;11.644;2023-03-15T01:16:44;4.70;99.90
16076;DHT22;8142;48.242;11.644;2023-03-15T01:19:11;4.70;99.90
16076;DHT22;8142;48.242;11.644;2023-03-15T01:21:40;4.70;99.90
16076;DHT22;8142;48.242;11.644;2023-03-15T01:24:09;4.60;99.90
16076;DHT22;8142;48.242;11.644;2023-03-15T01:26:36;4.60;99.90
16076;DHT22;8142;48.242;11.644;2023-03-15T01:29:02;4.60;99.90
16076;DHT22;8142;48.242;11.644;2023-03-15T01:31:29;4.60;99.90
16076;DHT22;8142;48.242;11.644;2023-03-15T01:33:56;4.60;99.90
16076;DHT22;8142;48.242;11.644;2023-03-15T01:36:23;4.60;99.90
16076;DHT22;8142;48.242;11.644;2023-03-15T01:38:49;4.70;99.90
16076;DHT22;8142;48.242;11.644;2023-03-15T01:41:17;4.60;99.90
16076;DHT22;8142;48.242;11.644;2023-03-15T01:43:44;4.60;99.90
16076;DHT22;8142;48.242;11.644;2023-03-15T01:48:54;4.60;99.90
16076;DHT22;8142;48.242;11.644;2023-03-15T01:51:27;4.60;99.90
16076;DHT22;8142;48.242;11.644;2023-03-15T01:56:32;4.50;99.90
16076;DHT22;8142;48.242;11.644;2023-03-15T01:59:00;4.50;99.90
16076;DHT22;8142;48.242;11.644;2023-03-15T02:01:27;4.40;99.90
16076;DHT22;8142;48.242;11.644;2023-03-15T02:03:59;4.40;99.90
16076;DHT22;8142;48.242;11.644;2023-03-15T02:06:27;4.40;99.90
16076;DHT22;8142;48.242;11.644;2023-03-15T02:09:00;4.30;99.90
16076;DHT22;8142;48.242;11.644;2023-03-15T02:11:27;4.30;99.90
16076;DHT22;8142;48.242;11.644;2023-03-15T02:13:54;4.30;99.90
16076;DHT22;8142;48.242;11.644;2023-03-15T02:16:22;4.30;99.90
16076;DHT22;8142;48.242;11.644;2023-03-15T02:18:48;4.30;99.90
16076;DHT22;8142;48.242;11.644;2023-03-15T02:21:32;4.20;99.90
16076;DHT22;8142;48.242;11.644;2023-03-15T02:26:43;4.20;99.90
16076;DHT22;8142;48.242;11.644;2023-03-15T02:29:10;4.10;99.90
16076;DHT22;8142;48.242;11.644;2023-03-15T02:31:36;4.10;99.90
16076;DHT22;8142;48.242;11.644;2023-03-15T02:34:04;4.10;99.90
16076;DHT22;8142;48.242;11.644;2023-03-15T02:36:32;4.10;99.90
16076;DHT22;8142;48.242;11.644;2023-03-15T02:38:58;4.00;99.90
16076;DHT22;8142;48.242;11.644;2023-03-15T02:41:36;4.00;99.90
16076;DHT22;8142;48.242;11.644;2023-03-15T02:44:16;4.00;99.90
16076;DHT22;8142;48.242;11.644;2023-03-15T02:46:44;4.00;99.90
16076;DHT22;8142;48.242;11.644;2023-03-15T02:49:12;3.90;99.90
16076;DHT22;8142;48.242;11.644;2023-03-15T02:51:41;3.90;99.90
16076;DHT22;8142;48.242;11.644;2023-03-15T02:54:07;3.90;99.90
16076;DHT22;8142;48.242;11.644;2023-03-15T02:56:33;3.80;99.90
16076;DHT22;8142;48.242;11.644;2023-03-15T02:58:59;3.70;99.90
16076;DHT22;8142;48.242;11.644;2023-03-15T03:01:25;3.70;99.90
16076;DHT22;8142;48.242;11.644;2023-03-15T03:03:51;3.60;99.90
16076;DHT22;8142;48.242;11.644;2023-03-15T03:06:18;3.60;99.90
16076;DHT22;8142;48.242;11.644;2023-03-15T03:08:44;3.50;99.90
16076;DHT22;8142;48.242;11.644;2023-03-15T03:11:13;3.50;99.90
16076;DHT22;8142;48.242;11.644;2023-03-15T03:13:40;3.40;99.90
16076;DHT22;8142;48.242;11.644;2023-03-15T03:16:06;3.40;99.90
16076;DHT22;8142;48.242;11.644;2023-03-15T03:18:32;3.40;99.90
16076;DHT22;8142;48.242;11.644;2023-03-15T03:21:02;3.40;99.90
16076;DHT22;8142;48.242;11.644;2023-03-15T03:23:30;3.40;99.90
16076;DHT22;8142;48.242;11.644;2023-03-15T03:25:56;3.40;99.90
16076;DHT22;8142;48.242;11.644;2023-03-15T03:28:24;3.40;99.90
16076;DHT22;8142;48.242;11.644;2023-03-15T03:30:50;3.40;99.90
16076;DHT22;8142;48.242;11.644;2023-03-15T03:33:16;3.40;99.90
16076;DHT22;8142;48.242;11.644;2023-03-15T03:35:42;3.40;99.90
16076;DHT22;8142;48.242;11.644;2023-03-15T03:38:09;3.40;99.90
16076;DHT22;8142;48.242;11.644;2023-03-15T03:40:37;3.40;99.90
16076;DHT22;8142;48.242;11.644;2023-03-15T03:43:03;3.40;99.90
16076;DHT22;8142;48.242;11.644;2023-03-15T03:45:29;3.20;99.90
16076;DHT22;8142;48.242;11.644;2023-03-15T03:47:54;3.40;99.90
16076;DHT22;8142;48.242;11.644;2023-03-15T03:50:20;3.40;99.90
16076;DHT22;8142;48.242;11.644;2023-03-15T03:52:46;3.50;99.90
16076;DHT22;8142;48.242;11.644;2023-03-15T03:55:12;3.50;99.90
16076;DHT22;8142;48.242;11.644;2023-03-15T03:57:39;3.50;99.90
16076;DHT22;8142;48.242;11.644;2023-03-15T04:00:06;3.50;99.90
16076;DHT22;8142;48.242;11.644;2023-03-15T04:02:32;3.50;99.90
16076;DHT22;8142;48.242;11.644;2023-03-15T04:04:58;3.40;99.90
16076;DHT22;8142;48.242;11.644;2023-03-15T04:07:24;3.30;99.90
16076;DHT22;8142;48.242;11.644;2023-03-15T04:09:50;3.20;99.90
16076;DHT22;8142;48.242;11.644;2023-03-15T04:12:16;3.10;99.90
16076;DHT22;8142;48.242;11.644;2023-03-15T04:14:42;2.90;99.90
16076;DHT22;8142;48.242;11.644;2023-03-15T04:17:07;2.80;99.90
16076;DHT22;8142;48.242;11.644;2023-03-15T04:19:34;2.70;99.90
16076;DHT22;8142;48.242;11.644;2023-03-15T04:22:00;2.60;99.90
16076;DHT22;8142;48.242;11.644;2023-03-15T04:24:34;2.50;99.90
16076;DHT22;8142;48.242;11.644;2023-03-15T04:27:01;2.40;99.90
16076;DHT22;8142;48.242;11.644;2023-03-15T04:29:27;2.40;99.90
16076;DHT22;8142;48.242;11.644;2023-03-15T04:31:53;2.30;99.90
16076;DHT22;8142;48.242;11.644;2023-03-15T04:34:30;2.30;99.90
16076;DHT22;8142;48.242;11.644;2023-03-15T04:36:56;2.20;99.90
16076;DHT22;8142;48.242;11.644;2023-03-15T04:39:22;2.10;99.90
16076;DHT22;8142;48.242;11.644;2023-03-15T04:41:48;2.10;99.90
16076;DHT22;8142;48.242;11.644;2023-03-15T04:44:14;2.10;99.90
16076;DHT22;8142;48.242;11.644;2023-03-15T04:46:41;2.10;99.90
16076;DHT22;8142;48.242;11.644;2023-03-15T04:49:07;2.10;99.90
16076;DHT22;8142;48.242;11.644;2023-03-15T04:51:33;2.00;99.90
16076;DHT22;8142;48.242;11.644;2023-03-15T04:54:00;2.00;99.90
16076;DHT22;8142;48.242;11.644;2023-03-15T04:56:26;2.00;99.90
16076;DHT22;8142;48.242;11.644;2023-03-15T04:58:53;2.10;99.90
16076;DHT22;8142;48.242;11.644;2023-03-15T05:01:18;2.00;99.90
16076;DHT22;8142;48.242;11.644;2023-03-15T05:03:45;2.00;99.90
16076;DHT22;8142;48.242;11.644;2023-03-15T05:06:11;2.00;99.90
16076;DHT22;8142;48.242;11.644;2023-03-15T05:08:37;2.00;99.90
16076;DHT22;8142;48.242;11.644;2023-03-15T05:11:03;2.00;99.90
16076;DHT22;8142;48.242;11.644;2023-03-15T05:13:30;2.00;99.90
16076;DHT22;8142;48.242;11.644;2023-03-15T05:15:56;2.00;99.90
16076;DHT22;8142;48.242;11.644;2023-03-15T05:18:23;2.10;99.90
16076;DHT22;8142;48.242;11.644;2023-03-15T05:20:49;2.00;99.90
16076;DHT22;8142;48.242;11.644;2023-03-15T05:23:15;2.00;99.90
16076;DHT22;8142;48.242;11.644;2023-03-15T05:25:41;2.00;99.90
16076;DHT22;8142;48.242;11.644;2023-03-15T05:28:07;2.00;99.90
16076;DHT22;8142;48.242;11.644;2023-03-15T05:30:33;2.00;99.90
16076;DHT22;8142;48.242;11.644;2023-03-15T05:32:59;1.90;99.90
16076;DHT22;8142;48.242;11.644;2023-03-15T05:35:29;1.90;99.90
16076;DHT22;8142;48.242;11.644;2023-03-15T05:37:55;1.90;99.90
16076;DHT22;8142;48.242;11.644;2023-03-15T05:40:21;1.90;99.90
16076;DHT22;8142;48.242;11.644;2023-03-15T05:42:47;1.90;99.90
16076;DHT22;8142;48.242;11.644;2023-03-15T05:45:12;1.90;99.90
16076;DHT22;8142;48.242;11.644;2023-03-15T05:47:39;1.90;99.90
16076;DHT22;8142;48.242;11.644;2023-03-15T05:50:05;2.00;99.90
16076;DHT22;8142;48.242;11.644;2023-03-15T05:52:31;2.00;99.90
16076;DHT22;8142;48.242;11.644;2023-03-15T05:54:57;2.10;99.90
16076;DHT22;8142;48.242;11.644;2023-03-15T05:57:22;2.20;99.90
16076;DHT22;8142;48.242;11.644;2023-03-15T05:59:48;2.30;99.90
16076;DHT22;8142;48.242;11.644;2023-03-15T06:02:14;2.50;99.90
16076;DHT22;8142;48.242;11.644;2023-03-15T06:04:40;2.40;99.90
16076;DHT22;8142;48.242;11.644;2023-03-15T06:07:06;2.50;99.90
16076;DHT22;8142;48.242;11.644;2023-03-15T06:09:32;2.60;99.90
16076;DHT22;8142;48.242;11.644;2023-03-15T06:11:57;2.60;99.90
16076;DHT22;8142;48.242;11.644;2023-03-15T06:14:25;2.60;99.90
16076;DHT22;8142;48.242;11.644;2023-03-15T06:16:51;2.60;99.90
16076;DHT22;8142;48.242;11.644;2023-03-15T06:19:17;2.60;99.90
16076;DHT22;8142;48.242;11.644;2023-03-15T06:21:43;2.70;99.90
16076;DHT22;8142;48.242;11.644;2023-03-15T06:24:08;2.70;99.90
16076;DHT22;8142;48.242;11.644;2023-03-15T06:26:34;2.80;99.90
16076;DHT22;8142;48.242;11.644;2023-03-15T06:29:00;2.80;99.90
16076;DHT22;8142;48.242;11.644;2023-03-15T06:31:26;2.80;99.90
16076;DHT22;8142;48.242;11.644;2023-03-15T06:33:52;2.90;99.90
16076;DHT22;8142;48.242;11.644;2023-03-15T06:36:18;2.90;99.90
16076;DHT22;8142;48.242;11.644;2023-03-15T06:38:43;3.00;99.90
16076;DHT22;8142;48.242;11.644;2023-03-15T06:41:09;3.00;99.90
16076;DHT22;8142;48.242;11.644;2023-03-15T06:43:37;3.10;99.90
16076;DHT22;8142;48.242;11.644;2023-03-15T06:46:03;3.10;99.90
16076;DHT22;8142;48.242;11.644;2023-03-15T06:48:29;3.20;99.90
16076;DHT22;8142;48.242;11.644;2023-03-15T06:50:56;3.30;99.90
16076;DHT22;8142;48.242;11.644;2023-03-15T06:53:21;3.30;99.90
16076;DHT22;8142;48.242;11.644;2023-03-15T06:55:47;3.40;99.90
16076;DHT22;8142;48.242;11.644;2023-03-15T06:58:15;3.40;99.90
16076;DHT22;8142;48.242;11.644;2023-03-15T07:00:41;3.50;99.90
16076;DHT22;8142;48.242;11.644;2023-03-15T07:03:09;3.60;99.90
16076;DHT22;8142;48.242;11.644;2023-03-15T07:05:35;3.60;99.90
16076;DHT22;8142;48.242;11.644;2023-03-15T07:08:02;3.60;99.90
16076;DHT22;8142;48.242;11.644;2023-03-15T07:10:28;3.60;99.90
16076;DHT22;8142;48.242;11.644;2023-03-15T07:12:53;3.70;99.90
16076;DHT22;8142;48.242;11.644;2023-03-15T07:15:19;3.70;99.90
16076;DHT22;8142;48.242;11.644;2023-03-15T07:17:45;3.80;99.90
16076;DHT22;8142;48.242;11.644;2023-03-15T07:20:11;3.80;99.90
16076;DHT22;8142;48.242;11.644;2023-03-15T07:22:37;3.90;99.90
16076;DHT22;8142;48.242;11.644;2023-03-15T07:25:03;3.90;99.90
16076;DHT22;8142;48.242;11.644;2023-03-15T07:27:32;4.00;99.90
16076;DHT22;8142;48.242;11.644;2023-03-15T07:29:58;4.10;99.90
16076;DHT22;8142;48.242;11.644;2023-03-15T07:32:25;4.20;99.90
16076;DHT22;8142;48.242;11.644;2023-03-15T07:34:51;4.20;99.90
16076;DHT22;8142;48.242;11.644;2023-03-15T07:37:17;4.20;99.90
16076;DHT22;8142;48.242;11.644;2023-03-15T07:39:43;4.20;99.90
16076;DHT22;8142;48.242;11.644;2023-03-15T07:42:09;4.20;99.90
16076;DHT22;8142;48.242;11.644;2023-03-15T07:44:35;4.10;99.90
16076;DHT22;8142;48.242;11.644;2023-03-15T07:47:01;4.10;99.90
16076;DHT22;8142;48.242;11.644;2023-03-15T07:49:26;4.00;99.90
16076;DHT22;8142;48.242;11.644;2023-03-15T07:51:52;4.00;99.90
16076;DHT22;8142;48.242;11.644;2023-03-15T07:54:18;4.10;99.90
16076;DHT22;8142;48.242;11.644;2023-03-15T07:56:44;4.10;99.90
16076;DHT22;8142;48.242;11.644;2023-03-15T07:59:10;4.10;99.90
16076;DHT22;8142;48.242;11.644;2023-03-15T08:01:36;4.10;99.90
16076;DHT22;8142;48.242;11.644;2023-03-15T08:04:02;4.20;99.90
16076;DHT22;8142;48.242;11.644;2023-03-15T08:06:28;4.30;99.90
16076;DHT22;8142;48.242;11.644;2023-03-15T08:08:54;4.40;99.90
16076;DHT22;8142;48.242;11.644;2023-03-15T08:11:20;4.60;99.90
16076;DHT22;8142;48.242;11.644;2023-03-15T08:13:46;4.70;99.90
16076;DHT22;8142;48.242;11.644;2023-03-15T08:16:11;4.80;99.90
16076;DHT22;8142;48.242;11.644;2023-03-15T08:18:37;4.90;99.90
16076;DHT22;8142;48.242;11.644;2023-03-15T08:21:03;5.00;99.90
16076;DHT22;8142;48.242;11.644;2023-03-15T08:23:29;5.00;99.90
16076;DHT22;8142;48.242;11.644;2023-03-15T08:25:55;5.10;99.90
16076;DHT22;8142;48.242;11.644;2023-03-15T08:28:21;5.00;99.90
16076;DHT22;8142;48.242;11.644;2023-03-15T08:30:47;5.00;99.90
16076;DHT22;8142;48.242;11.644;2023-03-15T08:33:13;5.00;99.90
16076;DHT22;8142;48.242;11.644;2023-03-15T08:35:39;4.90;99.90
16076;DHT22;8142;48.242;11.644;2023-03-15T08:38:06;4.90;99.90
16076;DHT22;8142;48.242;11.644;2023-03-15T08:40:31;4.90;99.90
16076;DHT22;8142;48.242;11.644;2023-03-15T08:42:58;4.90;99.90
16076;DHT22;8142;48.242;11.644;2023-03-15T08:45:25;4.90;99.90
16076;DHT22;8142;48.242;11.644;2023-03-15T08:47:58;5.00;99.90
16076;DHT22;8142;48.242;11.644;2023-03-15T08:50:25;4.90;99.90
16076;DHT22;8142;48.242;11.644;2023-03-15T08:52:52;4.90;99.90
16076;DHT22;8142;48.242;11.644;2023-03-15T08:55:18;4.90;99.90
16076;DHT22;8142;48.242;11.644;2023-03-15T08:57:45;4.90;99.90
16076;DHT22;8142;48.242;11.644;2023-03-15T09:00:12;4.90;99.90
16076;DHT22;8142;48.242;11.644;2023-03-15T09:02:46;5.00;99.90
16076;DHT22;8142;48.242;11.644;2023-03-15T09:05:13;5.00;99.90
16076;DHT22;8142;48.242;11.644;2023-03-15T09:07:41;5.00;99.90
16076;DHT22;8142;48.242;11.644;2023-03-15T09:10:09;4.90;99.90
16076;DHT22;8142;48.242;11.644;2023-03-15T09:12:35;4.90;99.90
16076;DHT22;8142;48.242;11.644;2023-03-15T09:15:01;4.90;99.90
16076;DHT22;8142;48.242;11.644;2023-03-15T09:17:26;5.00;99.90
16076;DHT22;8142;48.242;11.644;2023-03-15T09:19:52;5.00;99.90
16076;DHT22;8142;48.242;11.644;2023-03-15T09:22:21;5.10;99.90
16076;DHT22;8142;48.242;11.644;2023-03-15T09:24:47;5.10;99.90
16076;DHT22;8142;48.242;11.644;2023-03-15T09:27:13;5.10;99.90
16076;DHT22;8142;48.242;11.644;2023-03-15T09:29:39;5.10;99.90
16076;DHT22;8142;48.242;11.644;2023-03-15T09:32:05;5.10;99.90
16076;DHT22;8142;48.242;11.644;2023-03-15T09:34:31;5.00;99.90
16076;DHT22;8142;48.242;11.644;2023-03-15T09:36:56;5.00;99.90
16076;DHT22;8142;48.242;11.644;2023-03-15T09:39:22;5.10;99.90
16076;DHT22;8142;48.242;11.644;2023-03-15T09:41:55;5.00;99.90
16076;DHT22;8142;48.242;11.644;2023-03-15T09:44:46;5.00;99.90
16076;DHT22;8142;48.242;11.644;2023-03-15T09:52:46;4.90;99.90
16076;DHT22;8142;48.242;11.644;2023-03-15T09:55:27;4.90;99.90
16076;DHT22;8142;48.242;11.644;2023-03-15T09:58:00;4.80;99.90
16076;DHT22;8142;48.242;11.644;2023-03-15T10:00:46;4.80;99.90
16076;DHT22;8142;48.242;11.644;2023-03-15T10:03:31;4.80;99.90
16076;DHT22;8142;48.242;11.644;2023-03-15T10:06:04;4.80;99.90
16076;DHT22;8142;48.242;11.644;2023-03-15T10:08:32;4.80;99.90
16076;DHT22;8142;48.242;11.644;2023-03-15T10:11:12;4.80;99.90
16076;DHT22;8142;48.242;11.644;2023-03-15T10:19:12;4.90;99.90
16076;DHT22;8142;48.242;11.644;2023-03-15T10:21:49;4.90;99.90
16076;DHT22;8142;48.242;11.644;2023-03-15T10:24:24;4.90;99.90
16076;DHT22;8142;48.242;11.644;2023-03-15T10:26:52;5.00;99.90
16076;DHT22;8142;48.242;11.644;2023-03-15T10:29:20;5.10;99.90
16076;DHT22;8142;48.242;11.644;2023-03-15T10:31:49;5.20;99.90
16076;DHT22;8142;48.242;11.644;2023-03-15T10:34:17;5.30;99.90
16076;DHT22;8142;48.242;11.644;2023-03-15T10:36:48;5.30;99.90
16076;DHT22;8142;48.242;11.644;2023-03-15T10:39:14;5.40;99.90
16076;DHT22;8142;48.242;11.644;2023-03-15T10:41:46;5.50;99.90
16076;DHT22;8142;48.242;11.644;2023-03-15T10:44:22;5.60;99.90
16076;DHT22;8142;48.242;11.644;2023-03-15T10:47:12;5.70;99.90
16076;DHT22;8142;48.242;11.644;2023-03-15T10:49:39;5.80;99.90
16076;DHT22;8142;48.242;11.644;2023-03-15T10:52:23;5.90;99.90
16076;DHT22;8142;48.242;11.644;2023-03-15T10:54:50;5.90;99.90
16076;DHT22;8142;48.242;11.644;2023-03-15T10:57:18;6.00;99.90
16076;DHT22;8142;48.242;11.644;2023-03-15T10:59:59;6.10;99.90
16076;DHT22;8142;48.242;11.644;2023-03-15T11:03:18;6.20;99.90
16076;DHT22;8142;48.242;11.644;2023-03-15T11:05:50;6.20;99.90
16076;DHT22;8142;48.242;11.644;2023-03-15T11:08:18;6.20;99.90
16076;DHT22;8142;48.242;11.644;2023-03-15T11:10:46;6.30;99.90
16076;DHT22;8142;48.242;11.644;2023-03-15T11:13:18;6.30;99.90
16076;DHT22;8142;48.242;11.644;2023-03-15T11:16:06;6.30;99.90
16076;DHT22;8142;48.242;11.644;2023-03-15T11:21:04;6.40;99.90
16076;DHT22;8142;48.242;11.644;2023-03-15T11:23:35;6.40;99.90
16076;DHT22;8142;48.242;11.644;2023-03-15T11:26:02;6.40;99.90
16076;DHT22;8142;48.242;11.644;2023-03-15T11:28:31;6.40;99.90
16076;DHT22;8142;48.242;11.644;2023-03-15T11:30:57;6.40;99.90
16076;DHT22;8142;48.242;11.644;2023-03-15T11:36:01;6.40;99.90
16076;DHT22;8142;48.242;11.644;2023-03-15T11:38:34;6.40;99.90
16076;DHT22;8142;48.242;11.644;2023-03-15T11:41:10;6.50;99.90
16076;DHT22;8142;48.242;11.644;2023-03-15T11:46:20;6.60;99.90
16076;DHT22;8142;48.242;11.644;2023-03-15T11:51:25;6.80;99.90
16076;DHT22;8142;48.242;11.644;2023-03-15T11:54:13;6.80;99.90
16076;DHT22;8142;48.242;11.644;2023-03-15T12:01:49;7.00;99.90
16076;DHT22;8142;48.242;11.644;2023-03-15T12:04:43;7.00;99.90
16076;DHT22;8142;48.242;11.644;2023-03-15T12:09:51;7.10;99.90
16076;DHT22;8142;48.242;11.644;2023-03-15T12:17:52;7.30;99.90
16076;DHT22;8142;48.242;11.644;2023-03-15T12:20:33;7.30;99.90
16076;DHT22;8142;48.242;11.644;2023-03-15T12:23:20;7.40;99.90
16076;DHT22;8142;48.242;11.644;2023-03-15T12:28:35;7.40;99.90
16076;DHT22;8142;48.242;11.644;2023-03-15T12:31:04;7.40;99.90
16076;DHT22;8142;48.242;11.644;2023-03-15T12:33:32;7.40;99.90
16076;DHT22;8142;48.242;11.644;2023-03-15T12:36:02;7.50;99.90
16076;DHT22;8142;48.242;11.644;2023-03-15T12:38:38;7.50;99.90
16076;DHT22;8142;48.242;11.644;2023-03-15T12:44:19;7.50;99.90
16076;DHT22;8142;48.242;11.644;2023-03-15T12:57:08;7.50;99.90
16076;DHT22;8142;48.242;11.644;2023-03-15T12:59:41;7.40;99.90
16076;DHT22;8142;48.242;11.644;2023-03-15T13:02:28;7.40;99.90
16076;DHT22;8142;48.242;11.644;2023-03-15T13:16:04;7.40;99.90
16076;DHT22;8142;48.242;11.644;2023-03-15T13:18:40;7.40;99.90
16076;DHT22;8142;48.242;11.644;2023-03-15T13:21:23;7.40;99.90
16076;DHT22;8142;48.242;11.644;2023-03-15T13:23:51;7.40;99.90
16076;DHT22;8142;48.242;11.644;2023-03-15T13:29:11;7.30;99.90
16076;DHT22;8142;48.242;11.644;2023-03-15T13:31:39;7.30;99.90
16076;DHT22;8142;48.242;11.644;2023-03-15T13:34:21;7.30;99.90
16076;DHT22;8142;48.242;11.644;2023-03-15T13:36:56;7.30;99.90
16076;DHT22;8142;48.242;11.644;2023-03-15T13:39:29;7.30;99.90
16076;DHT22;8142;48.242;11.644;2023-03-15T13:42:03;7.40;99.90
16076;DHT22;8142;48.242;11.644;2023-03-15T13:44:30;7.40;99.90
16076;DHT22;8142;48.242;11.644;2023-03-15T13:46:57;7.40;99.90
16076;DHT22;8142;48.242;11.644;2023-03-15T13:49:24;7.40;99.90
16076;DHT22;8142;48.242;11.644;2023-03-15T13:51:52;7.40;99.90
16076;DHT22;8142;48.242;11.644;2023-03-15T13:54:24;7.40;99.90
16076;DHT22;8142;48.242;11.644;2023-03-15T13:56:55;7.40;99.90
16076;DHT22;8142;48.242;11.644;2023-03-15T13:59:28;7.40;99.90
16076;DHT22;8142;48.242;11.644;2023-03-15T14:01:55;7.40;99.90
16076;DHT22;8142;48.242;11.644;2023-03-15T14:04:22;7.40;99.90
16076;DHT22;8142;48.242;11.644;2023-03-15T14:06:50;7.40;99.90
16076;DHT22;8142;48.242;11.644;2023-03-15T14:09:28;7.50;99.90
16076;DHT22;8142;48.242;11.644;2023-03-15T14:12:04;7.40;99.90
16076;DHT22;8142;48.242;11.644;2023-03-15T14:14:35;7.50;99.90
16076;DHT22;8142;48.242;11.644;2023-03-15T14:17:15;7.50;99.90
16076;DHT22;8142;48.242;11.644;2023-03-15T14:19:54;7.50;99.90
16076;DHT22;8142;48.242;11.644;2023-03-15T14:22:21;7.50;99.90
16076;DHT22;8142;48.242;11.644;2023-03-15T14:24:49;7.50;99.90
16076;DHT22;8142;48.242;11.644;2023-03-15T14:27:22;7.50;99.90
16076;DHT22;8142;48.242;11.644;2023-03-15T14:29:52;7.50;99.90
16076;DHT22;8142;48.242;11.644;2023-03-15T14:37:39;7.50;99.90
16076;DHT22;8142;48.242;11.644;2023-03-15T14:40:30;7.40;99.90
16076;DHT22;8142;48.242;11.644;2023-03-15T14:43:04;7.40;99.90
16076;DHT22;8142;48.242;11.644;2023-03-15T14:45:32;7.40;99.90
16076;DHT22;8142;48.242;11.644;2023-03-15T14:48:02;7.40;99.90
16076;DHT22;8142;48.242;11.644;2023-03-15T14:50:34;7.30;99.90
16076;DHT22;8142;48.242;11.644;2023-03-15T14:53:01;7.30;99.90
16076;DHT22;8142;48.242;11.644;2023-03-15T14:55:33;7.20;99.90
16076;DHT22;8142;48.242;11.644;2023-03-15T14:58:01;7.20;99.90
16076;DHT22;8142;48.242;11.644;2023-03-15T15:00:27;7.20;99.90
16076;DHT22;8142;48.242;11.644;2023-03-15T15:02:55;7.20;99.90
16076;DHT22;8142;48.242;11.644;2023-03-15T15:05:27;7.10;99.90
16076;DHT22;8142;48.242;11.644;2023-03-15T15:08:04;7.10;99.90
16076;DHT22;8142;48.242;11.644;2023-03-15T15:10:31;7.10;99.90
16076;DHT22;8142;48.242;11.644;2023-03-15T15:12:59;7.00;99.90
16076;DHT22;8142;48.242;11.644;2023-03-15T15:15:25;7.00;99.90
16076;DHT22;8142;48.242;11.644;2023-03-15T15:17:51;6.90;99.90
16076;DHT22;8142;48.242;11.644;2023-03-15T15:20:18;6.90;99.90
16076;DHT22;8142;48.242;11.644;2023-03-15T15:22:45;6.90;99.90
16076;DHT22;8142;48.242;11.644;2023-03-15T15:25:21;6.70;99.90
16076;DHT22;8142;48.242;11.644;2023-03-15T15:27:49;6.70;99.90
16076;DHT22;8142;48.242;11.644;2023-03-15T15:30:17;6.60;99.90
16076;DHT22;8142;48.242;11.644;2023-03-15T15:32:43;6.60;99.90
16076;DHT22;8142;48.242;11.644;2023-03-15T15:35:14;6.60;99.90
16076;DHT22;8142;48.242;11.644;2023-03-15T15:37:42;6.60;99.90
16076;DHT22;8142;48.242;11.644;2023-03-15T15:40:21;6.60;99.90
16076;DHT22;8142;48.242;11.644;2023-03-15T15:42:50;6.50;99.90
16076;DHT22;8142;48.242;11.644;2023-03-15T15:45:17;6.50;99.90
16076;DHT22;8142;48.242;11.644;2023-03-15T15:47:43;6.50;99.90
16076;DHT22;8142;48.242;11.644;2023-03-15T15:50:15;6.40;99.90
16076;DHT22;8142;48.242;11.644;2023-03-15T15:52:44;6.40;99.90
16076;DHT22;8142;48.242;11.644;2023-03-15T15:55:16;6.40;99.90
16076;DHT22;8142;48.242;11.644;2023-03-15T15:57:44;6.40;99.90
16076;DHT22;8142;48.242;11.644;2023-03-15T16:00:13;6.30;99.90
16076;DHT22;8142;48.242;11.644;2023-03-15T16:02:41;6.30;99.90
16076;DHT22;8142;48.242;11.644;2023-03-15T16:05:07;6.30;99.90
16076;DHT22;8142;48.242;11.644;2023-03-15T16:07:37;6.30;99.90
16076;DHT22;8142;48.242;11.644;2023-03-15T16:10:06;6.20;99.90
16076;DHT22;8142;48.242;11.644;2023-03-15T16:12:33;6.10;99.90
16076;DHT22;8142;48.242;11.644;2023-03-15T16:14:59;6.00;99.90
16076;DHT22;8142;48.242;11.644;2023-03-15T16:17:25;5.90;99.90
16076;DHT22;8142;48.242;11.644;2023-03-15T16:19:53;5.80;99.90
16076;DHT22;8142;48.242;11.644;2023-03-15T16:22:22;5.70;99.90
16076;DHT22;8142;48.242;11.644;2023-03-15T16:24:54;5.60;99.90
16076;DHT22;8142;48.242;11.644;2023-03-15T16:27:22;5.50;99.90
16076;DHT22;8142;48.242;11.644;2023-03-15T16:29:49;5.40;99.90
16076;DHT22;8142;48.242;11.644;2023-03-15T16:32:24;5.30;99.90
16076;DHT22;8142;48.242;11.644;2023-03-15T16:34:52;5.20;99.90
16076;DHT22;8142;48.242;11.644;2023-03-15T16:37:24;5.20;99.90
16076;DHT22;8142;48.242;11.644;2023-03-15T16:39:52;5.10;99.90
16076;DHT22;8142;48.242;11.644;2023-03-15T16:42:20;5.00;99.90
16076;DHT22;8142;48.242;11.644;2023-03-15T16:44:48;5.00;99.90
16076;DHT22;8142;48.242;11.644;2023-03-15T16:47:16;5.00;99.90
16076;DHT22;8142;48.242;11.644;2023-03-15T16:49:42;5.00;99.90
16076;DHT22;8142;48.242;11.644;2023-03-15T16:52:09;4.90;99.90
16076;DHT22;8142;48.242;11.644;2023-03-15T16:54:36;4.90;99.90
16076;DHT22;8142;48.242;11.644;2023-03-15T16:57:05;5.00;99.90
16076;DHT22;8142;48.242;11.644;2023-03-15T16:59:34;4.90;99.90
16076;DHT22;8142;48.242;11.644;2023-03-15T17:02:00;4.80;99.90
16076;DHT22;8142;48.242;11.644;2023-03-15T17:04:26;4.80;99.90
16076;DHT22;8142;48.242;11.644;2023-03-15T17:06:52;4.80;99.90
16076;DHT22;8142;48.242;11.644;2023-03-15T17:09:21;4.70;99.90
16076;DHT22;8142;48.242;11.644;2023-03-15T17:11:48;4.70;99.90